Terminal Aerodrome Forecast
Issued by NWS Grand Forks, ND

Home | Current Version | Previous Version | Text Only | Print | Product List | Glossary Off
Versions: 1 2 3 4 5 6 7 8 9 10 11 12 13 14 15 16 17 18 19 20

174
FTUS43 KFGF 132328
TAFGFK
TAF
KGFK 132328Z 1400/1424 17008KT P6SM SCT250
     FM140700 18012KT P6SM BKN110
     FM140900 19013KT P6SM OVC030
     FM141400 23010KT 1SM -SN OVC020
     FM141600 28011KT P6SM OVC020
     FM141800 34014KT P6SM BKN015
     FM142000 34017KT 3SM BLSN BKN015
     FM142200 34018G27KT P6SM BKN030
     FM142300 34016G25KT P6SM SCT060=

USA.gov is the U.S. government's official web portal to all federal, state and local government web resources and services.